Terminal Aerodrome Forecast
Issued by NWS Quad Cities IA IL

Home | Current Version | Previous Version | Text Only | Print | Product List | Glossary On
Versions: 1 2 3 4 5 6 7 8 9 10 11 12 13 14 15 16 17 18 19 20 21 22 23 24 25 26 27 28 29 30 31 32 33 34
000
FTUS43 KDVN 271243 AAA
TAFDBQ
TAF AMD
KDBQ 271243Z 2713/2812 29012KT P6SM SCT007 BKN012
     FM271600 27011KT P6SM SCT025 BKN035
     FM272300 24005KT P6SM FEW040
     FM280300 17003KT P6SM SKC=

USA.gov is the U.S. government's official web portal to all federal, state and local government web resources and services.